Terminal Aerodrome Forecast
Issued by NWS Louisville, KY

Home | Current Version | Previous Version | Text Only | Print | Product List | Glossary On
Versions: 1 2 3 4 5 6 7 8 9 10 11 12 13 14 15 16 17
000
FTUS43 KLMK 210500
TAFLEX
TAF
KLEX 210520Z 2106/2206 24007KT P6SM BKN090
     FM211300 23011KT P6SM SKC
     FM211500 24018G28KT P6SM FEW060 SCT090
     FM212300 23012KT P6SM BKN060=

USA.gov is the U.S. government's official web portal to all federal, state and local government web resources and services.